sensor_id;sensor_type;location;lat;lon;timestamp;P1;durP1;ratioP1;P2;durP2;ratioP2
7703;SDS011;3894;49.700;10.770;2023-08-24T00:02:00;11.05;;;8.25;;
7703;SDS011;3894;49.700;10.770;2023-08-24T00:04:27;9.98;;;7.95;;
7703;SDS011;3894;49.700;10.770;2023-08-24T00:06:53;11.35;;;6.03;;
7703;SDS011;3894;49.700;10.770;2023-08-24T00:09:18;5.80;;;3.80;;
7703;SDS011;3894;49.700;10.770;2023-08-24T00:11:44;6.05;;;3.45;;
7703;SDS011;3894;49.700;10.770;2023-08-24T00:14:10;7.95;;;3.97;;
7703;SDS011;3894;49.700;10.770;2023-08-24T00:16:36;9.02;;;4.10;;
7703;SDS011;3894;49.700;10.770;2023-08-24T00:19:02;6.38;;;3.80;;
7703;SDS011;3894;49.700;10.770;2023-08-24T00:21:27;7.25;;;3.63;;
7703;SDS011;3894;49.700;10.770;2023-08-24T00:23:53;6.88;;;3.70;;
7703;SDS011;3894;49.700;10.770;2023-08-24T00:26:19;7.30;;;3.70;;
7703;SDS011;3894;49.700;10.770;2023-08-24T00:28:45;7.40;;;4.60;;
7703;SDS011;3894;49.700;10.770;2023-08-24T00:31:11;9.35;;;5.28;;
7703;SDS011;3894;49.700;10.770;2023-08-24T00:33:37;8.02;;;5.53;;
7703;SDS011;3894;49.700;10.770;2023-08-24T00:36:04;8.65;;;6.00;;
7703;SDS011;3894;49.700;10.770;2023-08-24T00:38:30;9.05;;;5.47;;
7703;SDS011;3894;49.700;10.770;2023-08-24T00:40:56;9.77;;;5.45;;
7703;SDS011;3894;49.700;10.770;2023-08-24T00:45:53;7.88;;;4.82;;
7703;SDS011;3894;49.700;10.770;2023-08-24T00:48:21;8.10;;;4.32;;
7703;SDS011;3894;49.700;10.770;2023-08-24T00:50:51;6.20;;;3.65;;
7703;SDS011;3894;49.700;10.770;2023-08-24T00:55:44;7.63;;;3.53;;
7703;SDS011;3894;49.700;10.770;2023-08-24T00:58:10;6.60;;;3.42;;
7703;SDS011;3894;49.700;10.770;2023-08-24T01:00:36;9.10;;;5.40;;
7703;SDS011;3894;49.700;10.770;2023-08-24T01:03:02;8.88;;;5.78;;
7703;SDS011;3894;49.700;10.770;2023-08-24T01:05:28;6.95;;;4.90;;
7703;SDS011;3894;49.700;10.770;2023-08-24T01:07:54;8.70;;;5.22;;
7703;SDS011;3894;49.700;10.770;2023-08-24T01:10:20;7.82;;;4.45;;
7703;SDS011;3894;49.700;10.770;2023-08-24T01:12:49;7.63;;;4.25;;
7703;SDS011;3894;49.700;10.770;2023-08-24T01:15:37;8.90;;;4.18;;
7703;SDS011;3894;49.700;10.770;2023-08-24T01:18:11;6.93;;;4.15;;
7703;SDS011;3894;49.700;10.770;2023-08-24T01:20:40;7.55;;;4.50;;
7703;SDS011;3894;49.700;10.770;2023-08-24T01:23:13;7.43;;;4.85;;
7703;SDS011;3894;49.700;10.770;2023-08-24T01:25:42;9.40;;;6.60;;
7703;SDS011;3894;49.700;10.770;2023-08-24T01:28:18;8.05;;;5.32;;
7703;SDS011;3894;49.700;10.770;2023-08-24T01:30:47;7.05;;;4.78;;
7703;SDS011;3894;49.700;10.770;2023-08-24T01:33:13;6.55;;;4.22;;
7703;SDS011;3894;49.700;10.770;2023-08-24T01:35:39;6.85;;;3.40;;
7703;SDS011;3894;49.700;10.770;2023-08-24T01:38:06;6.75;;;3.70;;
7703;SDS011;3894;49.700;10.770;2023-08-24T01:43:34;5.95;;;3.05;;
7703;SDS011;3894;49.700;10.770;2023-08-24T01:46:03;7.13;;;4.30;;
7703;SDS011;3894;49.700;10.770;2023-08-24T01:48:30;7.30;;;4.05;;
7703;SDS011;3894;49.700;10.770;2023-08-24T01:50:58;6.45;;;3.60;;
7703;SDS011;3894;49.700;10.770;2023-08-24T01:53:26;7.22;;;3.70;;
7703;SDS011;3894;49.700;10.770;2023-08-24T01:55:53;7.03;;;3.67;;
7703;SDS011;3894;49.700;10.770;2023-08-24T01:58:19;7.28;;;3.97;;
7703;SDS011;3894;49.700;10.770;2023-08-24T02:00:45;7.35;;;4.60;;
7703;SDS011;3894;49.700;10.770;2023-08-24T02:03:10;7.28;;;4.60;;
7703;SDS011;3894;49.700;10.770;2023-08-24T02:05:36;6.55;;;4.07;;
7703;SDS011;3894;49.700;10.770;2023-08-24T02:08:02;8.48;;;4.75;;
7703;SDS011;3894;49.700;10.770;2023-08-24T02:10:29;6.70;;;5.03;;
7703;SDS011;3894;49.700;10.770;2023-08-24T02:12:54;7.63;;;5.43;;
7703;SDS011;3894;49.700;10.770;2023-08-24T02:15:20;8.20;;;5.55;;
7703;SDS011;3894;49.700;10.770;2023-08-24T02:17:45;7.50;;;5.13;;
7703;SDS011;3894;49.700;10.770;2023-08-24T02:20:11;8.65;;;4.47;;
7703;SDS011;3894;49.700;10.770;2023-08-24T02:22:37;6.35;;;3.50;;
7703;SDS011;3894;49.700;10.770;2023-08-24T02:25:04;6.75;;;3.88;;
7703;SDS011;3894;49.700;10.770;2023-08-24T02:27:31;6.35;;;3.58;;
7703;SDS011;3894;49.700;10.770;2023-08-24T02:29:56;8.18;;;3.95;;
7703;SDS011;3894;49.700;10.770;2023-08-24T02:32:22;7.32;;;3.80;;
7703;SDS011;3894;49.700;10.770;2023-08-24T02:34:48;6.70;;;4.18;;
7703;SDS011;3894;49.700;10.770;2023-08-24T02:37:13;6.05;;;3.40;;
7703;SDS011;3894;49.700;10.770;2023-08-24T02:39:39;6.07;;;3.00;;
7703;SDS011;3894;49.700;10.770;2023-08-24T02:42:05;7.10;;;3.70;;
7703;SDS011;3894;49.700;10.770;2023-08-24T02:44:30;5.75;;;3.03;;
7703;SDS011;3894;49.700;10.770;2023-08-24T02:46:56;6.28;;;3.60;;
7703;SDS011;3894;49.700;10.770;2023-08-24T02:49:22;7.53;;;3.85;;
7703;SDS011;3894;49.700;10.770;2023-08-24T02:51:48;6.93;;;3.78;;
7703;SDS011;3894;49.700;10.770;2023-08-24T02:54:14;6.07;;;3.25;;
7703;SDS011;3894;49.700;10.770;2023-08-24T02:56:39;7.43;;;3.40;;
7703;SDS011;3894;49.700;10.770;2023-08-24T02:59:05;7.63;;;3.72;;
7703;SDS011;3894;49.700;10.770;2023-08-24T03:01:31;8.10;;;4.45;;
7703;SDS011;3894;49.700;10.770;2023-08-24T03:03:56;7.13;;;3.83;;
7703;SDS011;3894;49.700;10.770;2023-08-24T03:06:22;8.88;;;4.55;;
7703;SDS011;3894;49.700;10.770;2023-08-24T03:08:49;8.50;;;4.10;;
7703;SDS011;3894;49.700;10.770;2023-08-24T03:11:15;7.40;;;4.05;;
7703;SDS011;3894;49.700;10.770;2023-08-24T03:13:40;8.20;;;4.00;;
7703;SDS011;3894;49.700;10.770;2023-08-24T03:16:06;6.68;;;4.05;;
7703;SDS011;3894;49.700;10.770;2023-08-24T03:18:33;8.02;;;4.32;;
7703;SDS011;3894;49.700;10.770;2023-08-24T03:20:58;8.95;;;5.78;;
7703;SDS011;3894;49.700;10.770;2023-08-24T03:23:24;8.82;;;6.00;;
7703;SDS011;3894;49.700;10.770;2023-08-24T03:25:50;8.00;;;4.88;;
7703;SDS011;3894;49.700;10.770;2023-08-24T03:28:15;11.15;;;5.25;;
7703;SDS011;3894;49.700;10.770;2023-08-24T03:30:50;7.95;;;5.38;;
7703;SDS011;3894;49.700;10.770;2023-08-24T03:33:16;9.70;;;4.85;;
7703;SDS011;3894;49.700;10.770;2023-08-24T03:35:42;7.20;;;4.63;;
7703;SDS011;3894;49.700;10.770;2023-08-24T03:38:08;8.15;;;4.65;;
7703;SDS011;3894;49.700;10.770;2023-08-24T03:40:34;7.80;;;4.85;;
7703;SDS011;3894;49.700;10.770;2023-08-24T03:43:01;6.63;;;4.00;;
7703;SDS011;3894;49.700;10.770;2023-08-24T03:45:27;6.60;;;4.40;;
7703;SDS011;3894;49.700;10.770;2023-08-24T03:47:52;6.80;;;4.57;;
7703;SDS011;3894;49.700;10.770;2023-08-24T03:50:18;7.38;;;3.85;;
7703;SDS011;3894;49.700;10.770;2023-08-24T03:52:44;8.38;;;4.30;;
7703;SDS011;3894;49.700;10.770;2023-08-24T03:55:10;6.40;;;3.80;;
7703;SDS011;3894;49.700;10.770;2023-08-24T03:57:36;7.55;;;3.60;;
7703;SDS011;3894;49.700;10.770;2023-08-24T04:00:03;7.20;;;3.72;;
7703;SDS011;3894;49.700;10.770;2023-08-24T04:02:32;6.65;;;3.72;;
7703;SDS011;3894;49.700;10.770;2023-08-24T04:04:57;6.57;;;3.72;;
7703;SDS011;3894;49.700;10.770;2023-08-24T04:07:23;6.18;;;3.83;;
7703;SDS011;3894;49.700;10.770;2023-08-24T04:09:48;6.40;;;3.65;;
7703;SDS011;3894;49.700;10.770;2023-08-24T04:12:14;6.82;;;4.00;;
7703;SDS011;3894;49.700;10.770;2023-08-24T04:14:39;7.30;;;3.88;;
7703;SDS011;3894;49.700;10.770;2023-08-24T04:17:05;7.20;;;4.47;;
7703;SDS011;3894;49.700;10.770;2023-08-24T04:19:31;6.72;;;4.10;;
7703;SDS011;3894;49.700;10.770;2023-08-24T04:21:56;7.68;;;4.43;;
7703;SDS011;3894;49.700;10.770;2023-08-24T04:24:22;6.93;;;4.30;;
7703;SDS011;3894;49.700;10.770;2023-08-24T04:26:50;9.23;;;4.28;;
7703;SDS011;3894;49.700;10.770;2023-08-24T04:29:16;6.78;;;3.90;;
7703;SDS011;3894;49.700;10.770;2023-08-24T04:31:42;7.60;;;4.47;;
7703;SDS011;3894;49.700;10.770;2023-08-24T04:34:07;8.02;;;4.20;;
7703;SDS011;3894;49.700;10.770;2023-08-24T04:36:34;7.95;;;4.20;;
7703;SDS011;3894;49.700;10.770;2023-08-24T04:38:59;7.03;;;4.50;;
7703;SDS011;3894;49.700;10.770;2023-08-24T04:41:25;10.80;;;4.60;;
7703;SDS011;3894;49.700;10.770;2023-08-24T04:43:52;8.35;;;5.10;;
7703;SDS011;3894;49.700;10.770;2023-08-24T04:46:17;7.82;;;5.50;;
7703;SDS011;3894;49.700;10.770;2023-08-24T04:48:43;9.20;;;5.13;;
7703;SDS011;3894;49.700;10.770;2023-08-24T04:51:08;7.93;;;5.28;;
7703;SDS011;3894;49.700;10.770;2023-08-24T04:53:34;8.02;;;5.22;;
7703;SDS011;3894;49.700;10.770;2023-08-24T04:55:59;8.05;;;4.80;;
7703;SDS011;3894;49.700;10.770;2023-08-24T04:58:25;7.88;;;4.78;;
7703;SDS011;3894;49.700;10.770;2023-08-24T05:00:51;8.55;;;4.93;;
7703;SDS011;3894;49.700;10.770;2023-08-24T05:03:17;9.40;;;4.45;;
7703;SDS011;3894;49.700;10.770;2023-08-24T05:05:42;7.03;;;3.60;;
7703;SDS011;3894;49.700;10.770;2023-08-24T05:08:08;7.20;;;3.97;;
7703;SDS011;3894;49.700;10.770;2023-08-24T05:10:36;7.28;;;4.03;;
7703;SDS011;3894;49.700;10.770;2023-08-24T05:13:02;9.38;;;4.70;;
7703;SDS011;3894;49.700;10.770;2023-08-24T05:15:28;8.70;;;4.45;;
7703;SDS011;3894;49.700;10.770;2023-08-24T05:17:54;8.60;;;4.53;;
7703;SDS011;3894;49.700;10.770;2023-08-24T05:20:21;8.38;;;3.95;;
7703;SDS011;3894;49.700;10.770;2023-08-24T05:22:47;7.75;;;4.55;;
7703;SDS011;3894;49.700;10.770;2023-08-24T05:25:13;7.07;;;3.75;;
7703;SDS011;3894;49.700;10.770;2023-08-24T05:27:39;8.38;;;5.38;;
7703;SDS011;3894;49.700;10.770;2023-08-24T05:30:05;7.28;;;3.88;;
7703;SDS011;3894;49.700;10.770;2023-08-24T05:32:31;7.43;;;4.15;;
7703;SDS011;3894;49.700;10.770;2023-08-24T05:34:57;7.60;;;4.75;;
7703;SDS011;3894;49.700;10.770;2023-08-24T05:37:23;7.00;;;4.45;;
7703;SDS011;3894;49.700;10.770;2023-08-24T05:39:49;9.05;;;4.78;;
7703;SDS011;3894;49.700;10.770;2023-08-24T05:42:14;7.78;;;5.38;;
7703;SDS011;3894;49.700;10.770;2023-08-24T05:44:40;6.95;;;4.38;;
7703;SDS011;3894;49.700;10.770;2023-08-24T05:47:05;7.70;;;4.50;;
7703;SDS011;3894;49.700;10.770;2023-08-24T05:49:31;8.40;;;4.80;;
7703;SDS011;3894;49.700;10.770;2023-08-24T05:51:57;6.95;;;4.25;;
7703;SDS011;3894;49.700;10.770;2023-08-24T05:54:23;10.05;;;4.50;;
7703;SDS011;3894;49.700;10.770;2023-08-24T05:56:48;7.65;;;4.65;;
7703;SDS011;3894;49.700;10.770;2023-08-24T05:59:14;8.95;;;4.47;;
7703;SDS011;3894;49.700;10.770;2023-08-24T06:01:40;6.25;;;4.28;;
7703;SDS011;3894;49.700;10.770;2023-08-24T06:04:06;8.27;;;5.85;;
7703;SDS011;3894;49.700;10.770;2023-08-24T06:06:33;11.55;;;6.75;;
7703;SDS011;3894;49.700;10.770;2023-08-24T06:08:59;12.05;;;6.82;;
7703;SDS011;3894;49.700;10.770;2023-08-24T06:11:24;11.95;;;6.22;;
7703;SDS011;3894;49.700;10.770;2023-08-24T06:13:50;9.55;;;5.28;;
7703;SDS011;3894;49.700;10.770;2023-08-24T06:16:18;10.77;;;6.57;;
7703;SDS011;3894;49.700;10.770;2023-08-24T06:18:44;9.38;;;5.70;;
7703;SDS011;3894;49.700;10.770;2023-08-24T06:21:10;9.38;;;5.90;;
7703;SDS011;3894;49.700;10.770;2023-08-24T06:23:35;9.95;;;6.43;;
7703;SDS011;3894;49.700;10.770;2023-08-24T06:26:01;10.30;;;6.15;;
7703;SDS011;3894;49.700;10.770;2023-08-24T06:28:27;10.13;;;5.70;;
7703;SDS011;3894;49.700;10.770;2023-08-24T06:30:54;10.57;;;6.20;;
7703;SDS011;3894;49.700;10.770;2023-08-24T06:33:20;9.80;;;6.10;;
7703;SDS011;3894;49.700;10.770;2023-08-24T06:35:45;9.23;;;5.55;;
7703;SDS011;3894;49.700;10.770;2023-08-24T06:38:11;8.27;;;5.80;;
7703;SDS011;3894;49.700;10.770;2023-08-24T06:40:38;11.05;;;6.47;;
7703;SDS011;3894;49.700;10.770;2023-08-24T06:43:04;9.18;;;5.80;;
7703;SDS011;3894;49.700;10.770;2023-08-24T06:45:30;9.00;;;5.28;;
7703;SDS011;3894;49.700;10.770;2023-08-24T06:47:56;9.25;;;5.57;;
7703;SDS011;3894;49.700;10.770;2023-08-24T06:50:21;9.07;;;5.97;;
7703;SDS011;3894;49.700;10.770;2023-08-24T06:52:47;9.48;;;5.18;;
7703;SDS011;3894;49.700;10.770;2023-08-24T06:55:13;8.80;;;4.90;;
7703;SDS011;3894;49.700;10.770;2023-08-24T06:57:38;8.70;;;5.85;;
7703;SDS011;3894;49.700;10.770;2023-08-24T07:00:04;9.95;;;5.72;;
7703;SDS011;3894;49.700;10.770;2023-08-24T07:02:32;10.25;;;5.60;;
7703;SDS011;3894;49.700;10.770;2023-08-24T07:04:58;9.60;;;5.78;;
7703;SDS011;3894;49.700;10.770;2023-08-24T07:07:24;7.97;;;5.35;;
7703;SDS011;3894;49.700;10.770;2023-08-24T07:09:50;10.00;;;5.32;;
7703;SDS011;3894;49.700;10.770;2023-08-24T07:12:16;8.70;;;4.72;;
7703;SDS011;3894;49.700;10.770;2023-08-24T07:14:41;9.60;;;5.07;;
7703;SDS011;3894;49.700;10.770;2023-08-24T07:17:07;9.90;;;4.93;;
7703;SDS011;3894;49.700;10.770;2023-08-24T07:19:32;8.40;;;4.68;;
7703;SDS011;3894;49.700;10.770;2023-08-24T07:21:58;9.02;;;4.88;;
7703;SDS011;3894;49.700;10.770;2023-08-24T07:24:24;9.80;;;5.13;;
7703;SDS011;3894;49.700;10.770;2023-08-24T07:26:52;8.55;;;4.53;;
7703;SDS011;3894;49.700;10.770;2023-08-24T07:29:18;7.43;;;4.05;;
7703;SDS011;3894;49.700;10.770;2023-08-24T07:31:44;8.57;;;4.28;;
7703;SDS011;3894;49.700;10.770;2023-08-24T07:34:10;7.72;;;3.83;;
7703;SDS011;3894;49.700;10.770;2023-08-24T07:36:37;8.48;;;4.35;;
7703;SDS011;3894;49.700;10.770;2023-08-24T07:39:02;7.45;;;4.30;;
7703;SDS011;3894;49.700;10.770;2023-08-24T07:41:28;7.32;;;4.10;;
7703;SDS011;3894;49.700;10.770;2023-08-24T07:43:53;7.38;;;4.35;;
7703;SDS011;3894;49.700;10.770;2023-08-24T07:46:19;7.93;;;4.25;;
7703;SDS011;3894;49.700;10.770;2023-08-24T07:48:45;7.82;;;4.05;;
7703;SDS011;3894;49.700;10.770;2023-08-24T07:51:10;7.53;;;3.85;;
7703;SDS011;3894;49.700;10.770;2023-08-24T07:53:36;7.95;;;3.70;;
7703;SDS011;3894;49.700;10.770;2023-08-24T07:56:02;9.38;;;3.97;;
7703;SDS011;3894;49.700;10.770;2023-08-24T07:58:27;5.53;;;3.13;;
7703;SDS011;3894;49.700;10.770;2023-08-24T08:00:53;6.90;;;3.58;;
7703;SDS011;3894;49.700;10.770;2023-08-24T08:03:19;7.55;;;3.95;;
7703;SDS011;3894;49.700;10.770;2023-08-24T08:05:45;7.45;;;2.97;;
7703;SDS011;3894;49.700;10.770;2023-08-24T08:08:13;9.63;;;3.17;;
7703;SDS011;3894;49.700;10.770;2023-08-24T08:10:39;5.95;;;3.20;;
7703;SDS011;3894;49.700;10.770;2023-08-24T08:13:04;8.75;;;3.25;;
7703;SDS011;3894;49.700;10.770;2023-08-24T08:15:30;6.30;;;3.13;;
7703;SDS011;3894;49.700;10.770;2023-08-24T08:17:55;6.90;;;3.38;;
7703;SDS011;3894;49.700;10.770;2023-08-24T08:20:21;7.53;;;3.28;;
7703;SDS011;3894;49.700;10.770;2023-08-24T08:22:47;9.23;;;3.63;;
7703;SDS011;3894;49.700;10.770;2023-08-24T08:25:12;7.65;;;3.55;;
7703;SDS011;3894;49.700;10.770;2023-08-24T08:27:38;7.35;;;3.80;;
7703;SDS011;3894;49.700;10.770;2023-08-24T08:30:04;7.35;;;3.33;;
7703;SDS011;3894;49.700;10.770;2023-08-24T08:32:30;8.68;;;3.78;;
7703;SDS011;3894;49.700;10.770;2023-08-24T08:34:56;6.45;;;3.67;;
7703;SDS011;3894;49.700;10.770;2023-08-24T08:37:26;7.25;;;3.35;;
7703;SDS011;3894;49.700;10.770;2023-08-24T08:39:53;7.88;;;3.10;;
7703;SDS011;3894;49.700;10.770;2023-08-24T08:42:21;6.78;;;2.80;;
7703;SDS011;3894;49.700;10.770;2023-08-24T08:44:48;5.38;;;2.60;;
7703;SDS011;3894;49.700;10.770;2023-08-24T08:47:18;5.28;;;2.65;;
7703;SDS011;3894;49.700;10.770;2023-08-24T08:49:45;6.88;;;2.58;;
7703;SDS011;3894;49.700;10.770;2023-08-24T08:52:13;4.93;;;2.80;;
7703;SDS011;3894;49.700;10.770;2023-08-24T08:54:39;7.10;;;2.97;;
7703;SDS011;3894;49.700;10.770;2023-08-24T08:57:05;6.95;;;3.00;;
7703;SDS011;3894;49.700;10.770;2023-08-24T09:02:02;5.38;;;2.90;;
7703;SDS011;3894;49.700;10.770;2023-08-24T09:04:32;7.38;;;2.75;;
7703;SDS011;3894;49.700;10.770;2023-08-24T09:07:01;5.65;;;2.90;;
7703;SDS011;3894;49.700;10.770;2023-08-24T09:09:29;5.97;;;3.15;;
7703;SDS011;3894;49.700;10.770;2023-08-24T09:11:55;7.93;;;3.42;;
7703;SDS011;3894;49.700;10.770;2023-08-24T09:14:20;6.22;;;3.20;;
7703;SDS011;3894;49.700;10.770;2023-08-24T09:16:46;7.18;;;3.08;;
7703;SDS011;3894;49.700;10.770;2023-08-24T09:19:12;6.47;;;2.67;;
7703;SDS011;3894;49.700;10.770;2023-08-24T09:21:38;6.70;;;3.20;;
7703;SDS011;3894;49.700;10.770;2023-08-24T09:24:05;6.45;;;3.03;;
7703;SDS011;3894;49.700;10.770;2023-08-24T09:26:32;7.03;;;3.45;;
7703;SDS011;3894;49.700;10.770;2023-08-24T09:29:11;10.30;;;3.90;;
7703;SDS011;3894;49.700;10.770;2023-08-24T09:31:41;8.88;;;3.70;;
7703;SDS011;3894;49.700;10.770;2023-08-24T09:34:10;8.13;;;3.35;;
7703;SDS011;3894;49.700;10.770;2023-08-24T09:36:36;8.00;;;3.40;;
7703;SDS011;3894;49.700;10.770;2023-08-24T09:44:05;8.77;;;3.22;;
7703;SDS011;3894;49.700;10.770;2023-08-24T09:46:31;5.97;;;3.40;;
7703;SDS011;3894;49.700;10.770;2023-08-24T09:48:57;7.13;;;3.40;;
7703;SDS011;3894;49.700;10.770;2023-08-24T09:51:26;6.85;;;3.47;;
7703;SDS011;3894;49.700;10.770;2023-08-24T09:53:52;5.95;;;3.22;;
7703;SDS011;3894;49.700;10.770;2023-08-24T09:56:22;4.53;;;2.70;;
7703;SDS011;3894;49.700;10.770;2023-08-24T09:58:53;4.95;;;2.83;;
7703;SDS011;3894;49.700;10.770;2023-08-24T10:01:20;5.25;;;2.35;;
7703;SDS011;3894;49.700;10.770;2023-08-24T10:03:47;6.05;;;2.67;;
7703;SDS011;3894;49.700;10.770;2023-08-24T10:06:17;5.72;;;2.92;;
7703;SDS011;3894;49.700;10.770;2023-08-24T10:08:47;5.10;;;2.75;;
7703;SDS011;3894;49.700;10.770;2023-08-24T10:11:20;5.88;;;1.90;;
7703;SDS011;3894;49.700;10.770;2023-08-24T10:14:07;4.80;;;1.92;;
7703;SDS011;3894;49.700;10.770;2023-08-24T10:16:43;6.80;;;2.58;;
7703;SDS011;3894;49.700;10.770;2023-08-24T10:19:11;5.50;;;2.22;;
7703;SDS011;3894;49.700;10.770;2023-08-24T10:21:38;7.22;;;2.55;;
7703;SDS011;3894;49.700;10.770;2023-08-24T10:24:04;7.03;;;2.55;;
7703;SDS011;3894;49.700;10.770;2023-08-24T10:26:32;5.60;;;2.80;;
7703;SDS011;3894;49.700;10.770;2023-08-24T10:28:58;5.72;;;2.85;;
7703;SDS011;3894;49.700;10.770;2023-08-24T10:31:25;4.68;;;2.05;;
7703;SDS011;3894;49.700;10.770;2023-08-24T10:33:52;5.53;;;2.70;;
7703;SDS011;3894;49.700;10.770;2023-08-24T10:36:19;6.22;;;2.42;;
7703;SDS011;3894;49.700;10.770;2023-08-24T10:38:47;5.18;;;2.20;;
7703;SDS011;3894;49.700;10.770;2023-08-24T10:41:12;5.90;;;2.33;;
7703;SDS011;3894;49.700;10.770;2023-08-24T10:43:39;6.30;;;2.53;;
7703;SDS011;3894;49.700;10.770;2023-08-24T10:46:12;5.97;;;2.83;;
7703;SDS011;3894;49.700;10.770;2023-08-24T10:53:53;5.38;;;2.78;;
7703;SDS011;3894;49.700;10.770;2023-08-24T10:56:37;5.63;;;2.78;;
7703;SDS011;3894;49.700;10.770;2023-08-24T10:59:14;7.00;;;2.28;;
7703;SDS011;3894;49.700;10.770;2023-08-24T11:01:42;5.57;;;2.88;;
7703;SDS011;3894;49.700;10.770;2023-08-24T11:04:16;5.53;;;2.90;;
7703;SDS011;3894;49.700;10.770;2023-08-24T11:06:53;7.20;;;2.78;;
7703;SDS011;3894;49.700;10.770;2023-08-24T11:09:23;4.93;;;2.10;;
7703;SDS011;3894;49.700;10.770;2023-08-24T11:14:23;5.80;;;2.15;;
7703;SDS011;3894;49.700;10.770;2023-08-24T11:16:54;5.60;;;1.90;;
7703;SDS011;3894;49.700;10.770;2023-08-24T11:19:23;7.10;;;2.00;;
7703;SDS011;3894;49.700;10.770;2023-08-24T11:21:48;5.18;;;2.40;;
7703;SDS011;3894;49.700;10.770;2023-08-24T11:24:14;6.25;;;1.77;;
7703;SDS011;3894;49.700;10.770;2023-08-24T11:26:47;4.25;;;1.73;;
7703;SDS011;3894;49.700;10.770;2023-08-24T11:29:14;6.07;;;1.70;;
7703;SDS011;3894;49.700;10.770;2023-08-24T11:31:40;5.90;;;1.95;;
7703;SDS011;3894;49.700;10.770;2023-08-24T11:34:06;5.40;;;1.98;;
7703;SDS011;3894;49.700;10.770;2023-08-24T11:36:43;4.95;;;2.03;;
7703;SDS011;3894;49.700;10.770;2023-08-24T11:39:18;5.85;;;2.30;;
7703;SDS011;3894;49.700;10.770;2023-08-24T11:42:01;6.32;;;2.10;;
7703;SDS011;3894;49.700;10.770;2023-08-24T11:44:27;4.65;;;2.20;;
7703;SDS011;3894;49.700;10.770;2023-08-24T11:46:55;5.07;;;2.30;;
7703;SDS011;3894;49.700;10.770;2023-08-24T11:49:22;4.90;;;1.95;;
7703;SDS011;3894;49.700;10.770;2023-08-24T11:51:48;5.25;;;2.17;;
7703;SDS011;3894;49.700;10.770;2023-08-24T11:54:16;6.57;;;2.17;;
7703;SDS011;3894;49.700;10.770;2023-08-24T11:56:44;6.57;;;3.17;;
7703;SDS011;3894;49.700;10.770;2023-08-24T11:59:14;5.57;;;2.65;;
7703;SDS011;3894;49.700;10.770;2023-08-24T12:01:43;5.03;;;1.98;;
7703;SDS011;3894;49.700;10.770;2023-08-24T12:04:10;4.80;;;2.13;;
7703;SDS011;3894;49.700;10.770;2023-08-24T12:06:35;5.63;;;1.83;;
7703;SDS011;3894;49.700;10.770;2023-08-24T12:09:04;5.45;;;2.17;;
7703;SDS011;3894;49.700;10.770;2023-08-24T12:11:30;6.78;;;2.22;;
7703;SDS011;3894;49.700;10.770;2023-08-24T12:14:03;5.57;;;2.00;;
7703;SDS011;3894;49.700;10.770;2023-08-24T12:16:32;4.88;;;2.28;;
7703;SDS011;3894;49.700;10.770;2023-08-24T12:18:58;7.70;;;2.28;;
7703;SDS011;3894;49.700;10.770;2023-08-24T12:21:25;5.80;;;2.10;;
7703;SDS011;3894;49.700;10.770;2023-08-24T12:24:01;5.63;;;2.40;;
7703;SDS011;3894;49.700;10.770;2023-08-24T12:26:31;4.82;;;2.10;;
7703;SDS011;3894;49.700;10.770;2023-08-24T12:29:00;4.90;;;2.30;;
7703;SDS011;3894;49.700;10.770;2023-08-24T12:31:30;5.53;;;2.30;;
7703;SDS011;3894;49.700;10.770;2023-08-24T12:34:06;5.25;;;2.15;;
7703;SDS011;3894;49.700;10.770;2023-08-24T12:36:36;5.43;;;2.28;;
7703;SDS011;3894;49.700;10.770;2023-08-24T12:39:04;5.78;;;2.63;;
7703;SDS011;3894;49.700;10.770;2023-08-24T12:43:56;4.65;;;2.30;;
7703;SDS011;3894;49.700;10.770;2023-08-24T12:46:21;6.13;;;2.35;;
7703;SDS011;3894;49.700;10.770;2023-08-24T12:48:48;4.95;;;2.10;;
7703;SDS011;3894;49.700;10.770;2023-08-24T12:51:15;5.78;;;2.00;;
7703;SDS011;3894;49.700;10.770;2023-08-24T12:53:41;5.68;;;2.03;;
7703;SDS011;3894;49.700;10.770;2023-08-24T12:56:06;6.10;;;2.75;;
7703;SDS011;3894;49.700;10.770;2023-08-24T12:58:32;6.63;;;2.08;;
7703;SDS011;3894;49.700;10.770;2023-08-24T13:00:58;5.28;;;2.13;;
7703;SDS011;3894;49.700;10.770;2023-08-24T13:03:24;4.57;;;1.88;;
7703;SDS011;3894;49.700;10.770;2023-08-24T13:05:50;5.18;;;2.00;;
7703;SDS011;3894;49.700;10.770;2023-08-24T13:08:15;6.50;;;1.70;;
7703;SDS011;3894;49.700;10.770;2023-08-24T13:10:41;7.82;;;2.22;;
7703;SDS011;3894;49.700;10.770;2023-08-24T13:13:07;5.80;;;1.75;;
7703;SDS011;3894;49.700;10.770;2023-08-24T13:15:33;6.50;;;2.28;;
7703;SDS011;3894;49.700;10.770;2023-08-24T13:17:58;5.70;;;1.88;;
7703;SDS011;3894;49.700;10.770;2023-08-24T13:20:24;6.85;;;2.75;;
7703;SDS011;3894;49.700;10.770;2023-08-24T13:22:53;5.43;;;1.85;;
7703;SDS011;3894;49.700;10.770;2023-08-24T13:25:19;4.88;;;2.17;;
7703;SDS011;3894;49.700;10.770;2023-08-24T13:27:44;6.72;;;2.33;;
7703;SDS011;3894;49.700;10.770;2023-08-24T13:30:10;6.15;;;2.15;;
7703;SDS011;3894;49.700;10.770;2023-08-24T13:32:35;4.88;;;1.90;;
7703;SDS011;3894;49.700;10.770;2023-08-24T13:35:02;6.70;;;1.95;;
7703;SDS011;3894;49.700;10.770;2023-08-24T13:37:28;5.40;;;2.25;;
7703;SDS011;3894;49.700;10.770;2023-08-24T13:39:54;5.78;;;2.00;;
7703;SDS011;3894;49.700;10.770;2023-08-24T13:42:19;5.10;;;2.15;;
7703;SDS011;3894;49.700;10.770;2023-08-24T13:44:45;4.78;;;2.05;;
7703;SDS011;3894;49.700;10.770;2023-08-24T13:47:12;5.22;;;1.92;;
7703;SDS011;3894;49.700;10.770;2023-08-24T13:49:37;5.15;;;2.20;;
7703;SDS011;3894;49.700;10.770;2023-08-24T13:52:03;4.82;;;2.00;;
7703;SDS011;3894;49.700;10.770;2023-08-24T13:54:29;5.50;;;2.15;;
7703;SDS011;3894;49.700;10.770;2023-08-24T13:56:55;6.13;;;2.13;;
7703;SDS011;3894;49.700;10.770;2023-08-24T13:59:21;4.63;;;1.88;;
7703;SDS011;3894;49.700;10.770;2023-08-24T14:01:47;5.15;;;1.95;;
7703;SDS011;3894;49.700;10.770;2023-08-24T14:04:12;5.75;;;2.40;;
7703;SDS011;3894;49.700;10.770;2023-08-24T14:06:38;6.60;;;2.53;;
7703;SDS011;3894;49.700;10.770;2023-08-24T14:09:04;5.95;;;1.95;;
7703;SDS011;3894;49.700;10.770;2023-08-24T14:11:30;5.13;;;2.10;;
7703;SDS011;3894;49.700;10.770;2023-08-24T14:13:56;4.80;;;2.00;;
7703;SDS011;3894;49.700;10.770;2023-08-24T14:16:22;7.22;;;1.98;;
7703;SDS011;3894;49.700;10.770;2023-08-24T14:18:48;6.28;;;2.13;;
7703;SDS011;3894;49.700;10.770;2023-08-24T14:21:14;7.28;;;2.40;;
7703;SDS011;3894;49.700;10.770;2023-08-24T14:23:40;5.82;;;2.10;;
7703;SDS011;3894;49.700;10.770;2023-08-24T14:26:06;5.90;;;2.40;;
7703;SDS011;3894;49.700;10.770;2023-08-24T14:31:23;6.32;;;2.50;;
7703;SDS011;3894;49.700;10.770;2023-08-24T14:33:50;5.45;;;2.40;;
7703;SDS011;3894;49.700;10.770;2023-08-24T14:36:17;5.32;;;2.03;;
7703;SDS011;3894;49.700;10.770;2023-08-24T14:38:45;5.80;;;2.30;;
7703;SDS011;3894;49.700;10.770;2023-08-24T14:41:11;7.25;;;2.38;;
7703;SDS011;3894;49.700;10.770;2023-08-24T14:43:38;5.30;;;2.67;;
7703;SDS011;3894;49.700;10.770;2023-08-24T14:46:04;6.47;;;2.67;;
7703;SDS011;3894;49.700;10.770;2023-08-24T14:48:30;7.50;;;2.92;;
7703;SDS011;3894;49.700;10.770;2023-08-24T14:50:55;5.10;;;2.10;;
7703;SDS011;3894;49.700;10.770;2023-08-24T14:53:22;5.95;;;2.50;;
7703;SDS011;3894;49.700;10.770;2023-08-24T14:55:48;6.38;;;2.55;;
7703;SDS011;3894;49.700;10.770;2023-08-24T14:58:13;5.88;;;2.40;;
7703;SDS011;3894;49.700;10.770;2023-08-24T15:00:39;5.57;;;2.50;;
7703;SDS011;3894;49.700;10.770;2023-08-24T15:03:05;5.05;;;2.33;;
7703;SDS011;3894;49.700;10.770;2023-08-24T15:05:30;4.72;;;2.33;;
7703;SDS011;3894;49.700;10.770;2023-08-24T15:07:56;6.05;;;2.42;;
7703;SDS011;3894;49.700;10.770;2023-08-24T15:10:21;5.57;;;2.17;;
7703;SDS011;3894;49.700;10.770;2023-08-24T15:12:47;5.25;;;2.25;;
7703;SDS011;3894;49.700;10.770;2023-08-24T15:15:13;5.13;;;2.40;;
7703;SDS011;3894;49.700;10.770;2023-08-24T15:17:42;6.97;;;2.45;;
7703;SDS011;3894;49.700;10.770;2023-08-24T15:20:09;5.72;;;2.30;;
7703;SDS011;3894;49.700;10.770;2023-08-24T15:25:00;5.38;;;2.33;;
7703;SDS011;3894;49.700;10.770;2023-08-24T15:27:27;7.20;;;2.42;;
7703;SDS011;3894;49.700;10.770;2023-08-24T15:29:53;6.78;;;2.70;;